Donald, Oregon
Current Conditions -  °F | °C
As of 5:53 PM on Monday 24 Nov 2014 (Local Time) from KUAO Reporting Station
Overcast Overcast  
Wind Chill: 53°   Ceiling: 3000
Heat Index: 53°   Visibility: 10mi
Dew Point: 41°   Wind: 10mph
Humidity: 64%   Direction: 200°SSW
Pressure: 30.26"   Gusts: 18mph
Location:  45.22°N, 122.84°W
Report Text: KUAO 250153Z AUTO 20009G16KT 10SM BKN030 OVC041 12/05 A3026 RMK AO2 SLP247 T01170050
Loading
Personal Weather Stations






























Interactive Weather Map New forecast layout! Learn more

10-Day Weather Forecast

Advertisements
Track Severe Weather on mobile